Time;durP1;ratioP1;P1;durP2;ratioP2;P2;SDS_P1;SDS_P2;PMS_P1;PMS_P2;Temp;Humidity;BMP_temperature;BMP_pressure;BME280_temperature;BME280_humidity;BME280_pressure;Samples;Min_cycle;Max_cycle;Signal;HPM_P1;HPM_P2
2022/12/16 00:00:04;;;;;;;61.33;36.22;;;;;;;-3.50;100.00;100867.31;1020502;29;20331;-80
2022/12/16 00:00:35;;;;;;;56.03;34.85;;;;;;;-3.43;100.00;100873.69;1019943;29;20748;-81
2022/12/16 00:01:14;;;;;;;52.80;36.35;;;;;;;-3.46;100.00;100867.91;1019761;29;20382;-81
2022/12/16 00:01:46;;;;;;;56.60;36.33;;;;;;;-3.35;100.00;100864.41;1021372;28;20393;-81
2022/12/16 00:02:17;;;;;;;59.35;38.22;;;;;;;-3.32;100.00;100870.19;1023985;28;20517;-81
2022/12/16 00:02:50;;;;;;;54.75;35.90;;;;;;;-3.35;100.00;100869.63;1021780;28;20303;-81
2022/12/16 00:03:22;;;;;;;53.50;35.42;;;;;;;-3.38;100.00;100869.88;1024661;28;20795;-81
2022/12/16 00:03:55;;;;;;;54.50;36.67;;;;;;;-3.37;100.00;100867.13;1020531;29;20295;-81
2022/12/16 00:04:27;;;;;;;51.10;36.03;;;;;;;-3.32;100.00;100864.16;1018025;29;20382;-81
2022/12/16 00:04:58;;;;;;;53.33;35.78;;;;;;;-3.30;100.00;100868.28;1016620;29;20311;-81
2022/12/16 00:05:30;;;;;;;55.58;35.13;;;;;;;-3.35;100.00;100874.81;1020167;28;20382;-81
2022/12/16 00:06:03;;;;;;;56.33;36.15;;;;;;;-3.35;100.00;100873.03;1021904;29;20649;-81
2022/12/16 00:06:34;;;;;;;51.32;35.78;;;;;;;-3.33;100.00;100872.91;1023777;28;20294;-81
2022/12/16 00:07:06;;;;;;;57.45;36.20;;;;;;;-3.42;100.00;100879.72;1027837;28;20058;-81
2022/12/16 00:07:37;;;;;;;52.88;35.70;;;;;;;-3.27;100.00;100875.88;1024663;28;20372;-81
2022/12/16 00:08:09;;;;;;;50.83;33.92;;;;;;;-3.22;100.00;100880.69;1023447;28;20362;-81
2022/12/16 00:08:42;;;;;;;54.50;37.00;;;;;;;-3.19;100.00;100880.44;1021966;29;20312;-81
2022/12/16 00:09:13;;;;;;;54.28;35.97;;;;;;;-3.29;100.00;100882.94;1023072;28;20390;-81
2022/12/16 00:09:45;;;;;;;51.85;33.83;;;;;;;-3.25;100.00;100880.94;1025228;28;20346;-77
2022/12/16 00:10:16;;;;;;;53.97;34.47;;;;;;;-3.32;100.00;100884.97;1019764;29;20307;-81
2022/12/16 00:10:54;;;;;;;55.22;34.45;;;;;;;-3.43;100.00;100878.88;1019345;29;20300;-80
2022/12/16 00:11:26;;;;;;;55.58;36.42;;;;;;;-3.39;100.00;100878.63;1015454;29;20305;-81
2022/12/16 00:11:58;;;;;;;50.95;35.83;;;;;;;-3.41;100.00;100886.56;1018563;29;20302;-81
2022/12/16 00:12:30;;;;;;;51.88;33.08;;;;;;;-3.41;100.00;100886.56;1024034;29;20902;-77
2022/12/16 00:13:02;;;;;;;57.44;36.52;;;;;;;-3.37;100.00;100884.53;1025116;28;20298;-81
2022/12/16 00:13:43;;;;;;;52.30;34.42;;;;;;;-3.37;100.00;100884.53;1029945;28;20055;-76
2022/12/16 00:14:15;;;;;;;57.84;37.94;;;;;;;-3.36;100.00;100883.59;1028508;28;20282;-81
2022/12/16 00:14:46;;;;;;;56.97;36.55;;;;;;;-3.36;100.00;100878.38;1023201;28;20054;-80
2022/12/16 00:15:18;;;;;;;51.92;35.45;;;;;;;-3.29;100.00;100879.53;1022541;29;20314;-81
2022/12/16 00:15:50;;;;;;;49.03;33.95;;;;;;;-3.37;100.00;100884.53;1023054;29;20299;-81
2022/12/16 00:16:21;;;;;;;51.34;35.36;;;;;;;-3.27;100.00;100878.47;1023882;28;20307;-81
2022/12/16 00:16:53;;;;;;;59.05;36.45;;;;;;;-3.16;100.00;100880.19;1023572;29;20529;-81
2022/12/16 00:17:25;;;;;;;52.10;34.03;;;;;;;-3.16;100.00;100885.38;1020261;29;20299;-75
2022/12/16 00:17:56;;;;;;;55.13;36.47;;;;;;;-3.22;100.00;100885.91;1015874;29;20303;-81
2022/12/16 00:18:28;;;;;;;54.74;34.76;;;;;;;-3.14;100.00;100879.09;1013394;29;20304;-74
2022/12/16 00:18:59;;;;;;;56.17;35.15;;;;;;;-3.22;100.00;100891.94;1020253;29;20493;-75
2022/12/16 00:19:31;;;;;;;53.22;35.00;;;;;;;-3.21;100.00;100890.97;1023959;28;20310;-75
2022/12/16 00:20:04;;;;;;;51.95;35.40;;;;;;;-3.18;100.00;100882.09;1028001;28;20808;-75
2022/12/16 00:20:35;;;;;;;55.03;34.00;;;;;;;-3.15;100.00;100887.03;1027096;28;20309;-74
2022/12/16 00:21:08;;;;;;;55.17;35.53;;;;;;;-3.21;100.00;100887.56;1015792;29;20300;-75
2022/12/16 00:21:39;;;;;;;52.28;35.03;;;;;;;-3.21;100.00;100882.34;1020562;29;20884;-78
2022/12/16 00:22:13;;;;;;;55.95;35.55;;;;;;;-3.18;100.00;100882.09;1016356;29;20315;-81
2022/12/16 00:22:44;;;;;;;53.55;34.42;;;;;;;-3.18;100.00;100879.47;1020711;29;20419;-81
2022/12/16 00:23:16;;;;;;;51.15;34.95;;;;;;;-3.19;100.00;100875.22;1022637;28;20780;-80
2022/12/16 00:23:48;;;;;;;54.53;35.55;;;;;;;-3.23;100.00;100877.25;1017178;29;20825;-80
2022/12/16 00:24:20;;;;;;;49.58;34.75;;;;;;;-3.19;100.00;100880.44;1023314;28;20310;-81
2022/12/16 00:24:52;;;;;;;54.65;34.53;;;;;;;-3.23;100.00;100879.88;1020073;29;20303;-81
2022/12/16 00:25:23;;;;;;;53.22;34.15;;;;;;;-3.22;100.00;100876.31;1014134;29;20368;-81
2022/12/16 00:25:55;;;;;;;53.53;33.00;;;;;;;-3.22;100.00;100878.91;1013042;29;20688;-81
2022/12/16 00:26:28;;;;;;;58.30;34.08;;;;;;;-3.17;100.00;100879.34;1014916;29;20522;-80
2022/12/16 00:27:01;;;;;;;52.45;35.03;;;;;;;-3.15;100.00;100872.22;1017098;29;20311;-79
2022/12/16 00:27:33;;;;;;;52.65;35.60;;;;;;;-3.17;100.00;100881.13;1017906;29;20312;-81
2022/12/16 00:28:04;;;;;;;57.47;35.75;;;;;;;-3.17;100.00;100879.34;1020483;28;20714;-81
2022/12/16 00:28:37;;;;;;;52.75;34.72;;;;;;;-3.13;100.00;100875.53;1025711;28;20317;-81
2022/12/16 00:29:10;;;;;;;56.90;35.80;;;;;;;-3.04;100.00;100883.53;1025126;28;20350;-81
2022/12/16 00:29:41;;;;;;;56.95;36.97;;;;;;;-3.17;100.00;100881.13;1022072;29;20309;-75
2022/12/16 00:30:13;;;;;;;50.67;33.78;;;;;;;-3.11;100.00;100876.22;1021465;29;20342;-80
2022/12/16 00:30:47;;;;;;;54.97;37.00;;;;;;;-3.09;100.00;100870.91;1020031;29;20314;-74
2022/12/16 00:31:19;;;;;;;50.83;34.85;;;;;;;-3.11;100.00;100876.22;1017187;29;20386;-74
2022/12/16 00:31:51;;;;;;;54.22;33.75;;;;;;;-3.15;100.00;100877.44;1015372;29;20308;-74
2022/12/16 00:32:23;;;;;;;49.50;32.95;;;;;;;-3.19;100.00;100875.22;1013741;29;20304;-74
2022/12/16 00:32:54;;;;;;;53.92;33.60;;;;;;;-3.19;100.00;100883.88;1016760;29;20308;-74
2022/12/16 00:33:26;;;;;;;50.95;34.25;;;;;;;-3.22;100.00;100878.09;1020540;28;20718;-74
2022/12/16 00:33:58;;;;;;;53.95;35.28;;;;;;;-3.16;100.00;100885.38;1021187;28;20374;-74
2022/12/16 00:34:30;;;;;;;51.42;33.10;;;;;;;-3.14;100.00;100880.88;1026907;28;20302;-75
2022/12/16 00:35:01;;;;;;;50.13;34.53;;;;;;;-3.15;100.00;100880.06;1023804;28;20310;-75
2022/12/16 00:35:33;;;;;;;57.33;34.83;;;;;;;-3.15;100.00;100884.44;1023613;28;20299;-74
2022/12/16 00:36:07;;;;;;;52.13;33.80;;;;;;;-3.17;100.00;100883.75;1023369;28;20306;-74
2022/12/16 00:36:39;;;;;;;50.53;33.60;;;;;;;-3.18;100.00;100882.09;1023350;28;20886;-74
2022/12/16 00:37:12;;;;;;;55.42;35.90;;;;;;;-3.17;100.00;100883.75;1023634;28;20346;-74
2022/12/16 00:37:46;;;;;;;55.08;34.45;;;;;;;-3.19;100.00;100881.25;1023553;28;20310;-75
2022/12/16 00:38:18;;;;;;;50.20;34.67;;;;;;;-3.23;100.00;100890.28;1019172;29;20808;-75
2022/12/16 00:38:51;;;;;;;49.92;33.75;;;;;;;-3.26;100.00;100884.50;1016897;29;20371;-74
2022/12/16 00:39:23;;;;;;;51.50;34.67;;;;;;;-3.28;100.00;100886.41;1015687;29;20299;-76
2022/12/16 00:39:55;;;;;;;50.60;33.90;;;;;;;-3.26;100.00;100884.50;1015813;29;20300;-74
2022/12/16 00:40:27;;;;;;;48.50;32.90;;;;;;;-3.26;100.00;100884.50;1019492;29;21003;-74
2022/12/16 00:40:58;;;;;;;51.97;34.58;;;;;;;-3.26;100.00;100884.50;1019850;29;20311;-74
2022/12/16 00:41:30;;;;;;;52.97;36.05;;;;;;;-3.24;100.00;100886.03;1019945;29;20371;-74
2022/12/16 00:42:01;;;;;;;61.85;35.00;;;;;;;-3.23;100.00;100873.84;1023293;28;20635;-74
2022/12/16 00:42:33;;;;;;;54.38;35.13;;;;;;;-3.26;100.00;100879.28;1023585;28;20725;-74
2022/12/16 00:43:05;;;;;;;53.78;35.85;;;;;;;-3.25;100.00;100886.16;1020070;29;20393;-74
2022/12/16 00:43:36;;;;;;;56.17;35.15;;;;;;;-3.22;100.00;100881.53;1019672;29;20307;-74
2022/12/16 00:44:08;;;;;;;55.67;34.97;;;;;;;-3.17;100.00;100883.75;1019118;29;20335;-74
2022/12/16 00:44:40;;;;;;;50.90;33.90;;;;;;;-3.14;100.00;100886.09;1018368;29;20367;-74
2022/12/16 00:45:12;;;;;;;51.03;33.08;;;;;;;-3.14;100.00;100884.31;1016400;29;20296;-74
2022/12/16 00:45:44;;;;;;;48.60;32.70;;;;;;;-3.21;100.00;100877.97;1020573;28;20307;-74
2022/12/16 00:46:16;;;;;;;57.83;36.83;;;;;;;-3.18;100.00;100882.09;1027174;28;20306;-74
2022/12/16 00:46:48;;;;;;;51.22;33.88;;;;;;;-3.14;100.00;100883.47;1030116;28;20297;-75
2022/12/16 00:47:20;;;;;;;48.97;33.60;;;;;;;-3.12;100.00;100878.97;1031283;28;20304;-74
2022/12/16 00:47:51;;;;;;;51.13;34.20;;;;;;;-3.04;100.00;100884.38;1028484;28;20317;-80
2022/12/16 00:48:24;;;;;;;55.17;33.30;;;;;;;-3.12;100.00;100878.97;1027057;28;20302;-81
2022/12/16 00:48:55;;;;;;;52.65;34.95;;;;;;;-3.11;100.00;100880.63;1023415;28;20326;-80
2022/12/16 00:49:27;;;;;;;46.60;32.30;;;;;;;-3.15;100.00;100881.84;1026277;28;20338;-81
2022/12/16 00:49:59;;;;;;;53.13;35.40;;;;;;;-3.17;100.00;100878.53;1023168;28;20306;-81
2022/12/16 00:50:30;;;;;;;51.58;32.17;;;;;;;-3.16;100.00;100877.56;1023945;28;20317;-81
2022/12/16 00:51:02;;;;;;;48.13;33.20;;;;;;;-3.18;100.00;100879.47;1023828;28;20551;-81
2022/12/16 00:51:33;;;;;;;47.38;33.25;;;;;;;-3.15;100.00;100880.06;1022186;29;20302;-81
2022/12/16 00:52:05;;;;;;;53.72;34.47;;;;;;;-3.21;100.00;100877.97;1019428;29;20342;-81
2022/12/16 00:52:37;;;;;;;50.65;34.75;;;;;;;-3.24;100.00;100882.59;1022164;29;20337;-81
2022/12/16 00:53:08;;;;;;;50.60;33.97;;;;;;;-3.25;100.00;100875.75;1022480;29;20295;-81
2022/12/16 00:53:40;;;;;;;48.30;34.58;;;;;;;-3.18;100.00;100882.09;1024384;28;20717;-81
2022/12/16 00:54:13;;;;;;;49.75;33.60;;;;;;;-3.15;100.00;100872.22;1027185;28;20676;-80
2022/12/16 00:54:44;;;;;;;49.25;33.80;;;;;;;-3.17;100.00;100875.94;1024151;29;20294;-81
2022/12/16 00:55:16;;;;;;;50.10;32.10;;;;;;;-3.07;100.00;100879.41;1024111;29;20693;-75
2022/12/16 00:55:48;;;;;;;55.70;36.30;;;;;;;-3.06;100.00;100880.22;1020168;29;20694;-74
2022/12/16 00:56:20;;;;;;;51.08;35.03;;;;;;;-3.16;100.00;100881.00;1024521;28;20299;-74
2022/12/16 00:56:59;;;;;;;54.42;34.58;;;;;;;-3.19;100.00;100880.44;1017953;29;20300;-75
2022/12/16 00:57:31;;;;;;;50.28;36.00;;;;;;;-3.26;100.00;100874.09;1020996;28;20327;-74
2022/12/16 00:58:02;;;;;;;50.10;34.63;;;;;;;-3.18;100.00;100882.09;1023554;28;20310;-74
2022/12/16 00:58:35;;;;;;;50.67;33.85;;;;;;;-3.12;100.00;100873.75;1021349;28;20683;-75
2022/12/16 00:59:07;;;;;;;48.65;33.97;;;;;;;-3.03;100.00;100878.19;1027168;28;20404;-75
2022/12/16 00:59:38;;;;;;;50.50;35.35;;;;;;;-2.95;100.00;100878.41;1023367;28;20311;-74
2022/12/16 01:00:12;;;;;;;52.03;36.47;;;;;;;-3.02;100.00;100882.44;1023621;28;20373;-75
2022/12/16 01:00:43;;;;;;;49.97;34.97;;;;;;;-3.05;100.00;100877.50;1027310;28;20385;-75
2022/12/16 01:01:15;;;;;;;53.78;34.25;;;;;;;-3.10;100.00;100877.06;1027841;28;20310;-75
2022/12/16 01:01:47;;;;;;;50.17;33.05;;;;;;;-3.17;100.00;100878.53;1031142;28;20297;-75
2022/12/16 01:02:18;;;;;;;55.55;35.30;;;;;;;-3.14;100.00;100883.47;1029806;28;20301;-75
2022/12/16 01:02:50;;;;;;;47.45;33.92;;;;;;;-3.18;100.00;100876.88;1023228;28;20361;-75
2022/12/16 01:03:24;;;;;;;52.88;34.80;;;;;;;-3.17;100.00;100881.13;1021935;28;20303;-75
2022/12/16 01:03:56;;;;;;;51.83;33.90;;;;;;;-3.09;100.00;100876.09;1022891;28;20381;-75
2022/12/16 01:04:28;;;;;;;53.17;34.05;;;;;;;-3.17;100.00;100876.75;1027272;28;20325;-75
2022/12/16 01:05:00;;;;;;;53.17;34.83;;;;;;;-3.17;100.00;100881.13;1027545;28;20401;-75
2022/12/16 01:05:31;;;;;;;49.88;32.55;;;;;;;-3.13;100.00;100885.13;1027849;28;20302;-74
2022/12/16 01:06:11;;;;;;;51.90;34.03;;;;;;;-3.21;100.00;100882.34;1022446;28;20305;-75
2022/12/16 01:06:42;;;;;;;54.95;35.72;;;;;;;-3.21;100.00;100877.13;1018250;29;20299;-74
2022/12/16 01:07:14;;;;;;;57.45;34.83;;;;;;;-3.19;100.00;100877.84;1015807;29;20300;-75
2022/12/16 01:07:46;;;;;;;52.10;32.20;;;;;;;-3.11;100.00;100878.00;1014561;29;20404;-74
2022/12/16 01:08:18;;;;;;;52.08;34.97;;;;;;;-3.17;100.00;100876.75;1016892;29;20318;-75
2022/12/16 01:08:50;;;;;;;50.97;34.03;;;;;;;-3.17;100.00;100883.75;1011774;29;20312;-75
2022/12/16 01:09:22;;;;;;;54.10;35.95;;;;;;;-3.18;100.00;100880.31;1012214;29;20927;-75
2022/12/16 01:09:53;;;;;;;53.50;34.30;;;;;;;-3.22;100.00;100875.47;1015727;29;20307;-74
2022/12/16 01:10:25;;;;;;;51.60;33.28;;;;;;;-3.23;100.00;100884.25;1018254;29;20320;-75
2022/12/16 01:10:57;;;;;;;47.92;31.98;;;;;;;-3.23;100.00;100879.03;1019242;28;20962;-75
2022/12/16 01:11:28;;;;;;;51.95;34.25;;;;;;;-3.27;100.00;100888.06;1018733;29;20343;-81
2022/12/16 01:12:00;;;;;;;57.65;33.30;;;;;;;-3.29;100.00;100884.72;1017312;29;20694;-80
2022/12/16 01:12:32;;;;;;;59.80;34.88;;;;;;;-3.30;100.00;100888.28;1019430;29;20922;-81
2022/12/16 01:13:04;;;;;;;51.38;33.03;;;;;;;-3.30;100.00;100883.06;1019929;29;20358;-82
2022/12/16 01:13:36;;;;;;;56.58;35.13;;;;;;;-3.19;100.00;100890.84;1025821;28;20294;-81
2022/12/16 01:14:07;;;;;;;52.60;35.35;;;;;;;-3.25;100.00;100886.97;1017739;29;20311;-81
2022/12/16 01:14:39;;;;;;;50.50;35.35;;;;;;;-3.24;100.00;100887.81;1016131;29;20304;-81
2022/12/16 01:15:12;;;;;;;50.00;33.17;;;;;;;-3.23;100.00;100884.25;1019496;29;20306;-81
2022/12/16 01:15:43;;;;;;;55.60;35.42;;;;;;;-3.23;100.00;100897.28;1020168;28;20821;-82
2022/12/16 01:16:15;;;;;;;53.17;34.03;;;;;;;-3.07;100.00;100892.44;1023196;28;20298;-81
2022/12/16 01:16:52;;;;;;;50.47;34.95;;;;;;;-3.11;100.00;100899.69;1024463;29;20394;-80
2022/12/16 01:17:25;;;;;;;51.92;34.65;;;;;;;-3.14;100.00;100897.34;1020213;29;20378;-75
2022/12/16 01:17:57;;;;;;;53.88;33.78;;;;;;;-3.03;100.00;100893.81;1018504;29;20304;-74
2022/12/16 01:18:28;;;;;;;51.30;34.78;;;;;;;-3.08;100.00;100893.38;1023491;29;20299;-75
2022/12/16 01:19:00;;;;;;;52.80;33.63;;;;;;;-3.11;100.00;100897.06;1019448;29;20291;-75
2022/12/16 01:19:32;;;;;;;57.70;34.33;;;;;;;-3.11;100.00;100894.47;1020183;29;20662;-74
2022/12/16 01:20:04;;;;;;;52.95;35.00;;;;;;;-3.04;100.00;100894.78;1020222;29;20291;-81
2022/12/16 01:20:35;;;;;;;51.72;34.90;;;;;;;-3.00;100.00;100896.22;1016259;29;20311;-82
2022/12/16 01:21:08;;;;;;;52.38;34.15;;;;;;;-3.06;100.00;100886.28;1019361;29;20449;-81
2022/12/16 01:21:40;;;;;;;53.28;35.00;;;;;;;-3.08;100.00;100890.78;1016009;29;20703;-81
2022/12/16 01:22:12;;;;;;;50.47;33.50;;;;;;;-3.04;100.00;100899.16;1019151;29;20386;-78
2022/12/16 01:22:45;;;;;;;54.88;36.05;;;;;;;-3.12;100.00;100892.81;1021614;29;20303;-81
2022/12/16 01:23:17;;;;;;;49.30;34.50;;;;;;;-3.18;100.00;100898.53;1021250;29;20371;-80
2022/12/16 01:23:48;;;;;;;50.63;33.20;;;;;;;-3.14;100.00;100896.50;1019696;29;20351;-81
2022/12/16 01:24:20;;;;;;;55.20;33.22;;;;;;;-3.09;100.00;100906.53;1018063;29;20651;-82
2022/12/16 01:24:52;;;;;;;51.63;35.75;;;;;;;-3.07;100.00;100902.84;1020574;29;20797;-79
2022/12/16 01:25:26;;;;;;;51.50;33.17;;;;;;;-3.00;100.00;100901.41;1024413;28;20384;-81
2022/12/16 01:25:59;;;;;;;50.42;33.63;;;;;;;-3.02;100.00;100897.25;1018622;29;20375;-81
2022/12/16 01:26:31;;;;;;;50.20;35.65;;;;;;;-2.96;100.00;100902.81;1020257;29;20307;-81
2022/12/16 01:27:02;;;;;;;47.50;33.17;;;;;;;-2.98;100.00;100902.13;1016743;29;20465;-82
2022/12/16 01:27:34;;;;;;;50.17;33.30;;;;;;;-2.96;100.00;100902.81;1017661;29;20307;-81
2022/12/16 01:28:06;;;;;;;49.03;34.13;;;;;;;-2.82;100.00;100910.28;1023165;28;20301;-81
2022/12/16 01:28:38;;;;;;;54.70;34.80;;;;;;;-2.89;100.00;100906.56;1023222;28;20295;-80
2022/12/16 01:29:10;;;;;;;58.70;33.47;;;;;;;-2.95;100.00;100911.47;1027486;28;20294;-81
2022/12/16 01:29:42;;;;;;;45.40;33.33;;;;;;;-2.97;100.00;100910.75;1027298;28;20692;-81
2022/12/16 01:30:14;;;;;;;49.20;32.95;;;;;;;-2.97;100.00;100910.75;1023254;28;20313;-81
2022/12/16 01:30:46;;;;;;;54.47;34.58;;;;;;;-2.98;100.00;100907.31;1025032;28;20705;-81
2022/12/16 01:31:18;;;;;;;48.42;32.30;;;;;;;-2.78;100.00;100915.25;1027022;28;20752;-81
2022/12/16 01:31:50;;;;;;;47.88;31.35;;;;;;;-2.64;100.00;100912.31;1020785;29;20311;-81
2022/12/16 01:32:22;;;;;;;54.22;36.33;;;;;;;-2.65;100.00;100911.50;1025683;28;20741;-80
2022/12/16 01:32:54;;;;;;;52.70;35.88;;;;;;;-2.71;100.00;100924.22;1024136;28;20847;-75
2022/12/16 01:33:27;;;;;;;46.72;33.15;;;;;;;-2.78;100.00;100921.28;1027501;28;20309;-74
2022/12/16 01:33:59;;;;;;;52.70;34.17;;;;;;;-2.87;100.00;100922.88;1027475;28;20298;-74
2022/12/16 01:34:32;;;;;;;50.13;33.97;;;;;;;-2.91;100.00;100918.88;1027214;28;20309;-75
2022/12/16 01:35:04;;;;;;;55.88;33.00;;;;;;;-2.98;100.00;100916.94;1023467;29;20434;-74
2022/12/16 01:35:58;;;;;;;54.92;36.08;;;;;;;-3.04;100.00;100926.03;1022739;28;20303;-75
2022/12/16 01:36:30;;;;;;;55.55;35.08;;;;;;;-3.06;100.00;100927.97;1023180;28;20099;-75
2022/12/16 01:37:01;;;;;;;51.28;34.08;;;;;;;-3.05;100.00;100927.00;1026280;28;20348;-75
2022/12/16 01:37:33;;;;;;;52.65;33.22;;;;;;;-3.01;100.00;100936.25;1027625;28;20294;-75
2022/12/16 01:38:05;;;;;;;50.65;34.85;;;;;;;-2.93;100.00;100928.63;1027176;28;20357;-74
2022/12/16 01:38:36;;;;;;;51.60;33.30;;;;;;;-2.91;100.00;100931.91;1022525;28;20322;-75
2022/12/16 01:39:09;;;;;;;54.08;34.15;;;;;;;-2.96;100.00;100939.28;1015515;29;20308;-75
2022/12/16 01:39:41;;;;;;;51.28;34.35;;;;;;;-2.87;100.00;100938.53;1016107;29;20308;-74
2022/12/16 01:40:18;;;;;;;52.85;35.28;;;;;;;-2.90;100.00;100944.00;1015933;29;20558;-74
2022/12/16 01:40:50;;;;;;;51.97;34.17;;;;;;;-2.93;100.00;100939.03;1014922;29;20320;-74
2022/12/16 01:41:22;;;;;;;51.70;34.08;;;;;;;-2.86;100.00;100940.19;1017181;29;20292;-75
2022/12/16 01:41:53;;;;;;;53.42;33.13;;;;;;;-2.86;100.00;100945.38;1020497;29;20295;-74
2022/12/16 01:42:30;;;;;;;48.20;33.60;;;;;;;-2.88;100.00;100949.06;1019968;28;20865;-74
2022/12/16 01:43:09;;;;;;;49.70;32.50;;;;;;;-2.85;100.00;100946.22;1021150;29;20290;-75
2022/12/16 01:43:41;;;;;;;51.47;33.58;;;;;;;-2.85;100.00;100941.00;1015158;29;21023;-74
2022/12/16 01:44:15;;;;;;;55.55;34.58;;;;;;;-2.97;100.00;100944.63;1013975;29;20728;-74
2022/12/16 01:44:49;;;;;;;49.70;33.50;;;;;;;-2.99;100.00;100936.13;1021497;28;20338;-74
2022/12/16 01:45:34;;;;;;;58.13;35.92;;;;;;;-2.98;100.00;100945.59;1020524;28;20378;-74
2022/12/16 01:46:13;;;;;;;51.33;35.47;;;;;;;-3.01;100.00;100945.81;1026294;28;20294;-75
2022/12/16 01:46:54;;;;;;;52.17;34.03;;;;;;;-2.97;100.00;100942.84;1023817;28;20307;-75
2022/12/16 01:47:30;;;;;;;53.08;32.70;;;;;;;-2.98;100.00;100946.41;1021540;29;21629;-74
2022/12/16 01:48:35;;;;;;;54.20;34.25;;;;;;;-3.02;100.00;100949.38;1019247;29;20514;-75
2022/12/16 01:49:11;;;;;;;53.50;31.92;;;;;;;-2.98;100.00;100943.81;1020356;28;20334;-75
2022/12/16 01:49:48;;;;;;;51.40;32.25;;;;;;;-2.88;100.00;100949.91;1022243;28;20310;-74
2022/12/16 01:50:20;;;;;;;50.45;32.97;;;;;;;-2.87;100.00;100945.50;1019106;29;20307;-75
2022/12/16 01:50:59;;;;;;;51.42;34.45;;;;;;;-2.95;100.00;100946.16;1019312;29;20311;-75
2022/12/16 01:51:35;;;;;;;52.78;35.03;;;;;;;-2.86;100.00;100944.56;1017820;29;20291;-74
2022/12/16 01:52:09;;;;;;;48.13;33.08;;;;;;;-2.83;100.00;100950.34;1021923;28;20307;-81
2022/12/16 01:52:45;;;;;;;49.65;33.33;;;;;;;-2.80;100.00;100955.31;1020290;29;20355;-81
2022/12/16 01:53:16;;;;;;;53.78;32.78;;;;;;;-2.85;100.00;100952.25;1017786;29;20355;-81
2022/12/16 01:53:51;;;;;;;56.17;34.75;;;;;;;-2.90;100.00;100957.03;1015406;29;20695;-75
2022/12/16 01:54:38;;;;;;;51.80;33.72;;;;;;;-2.94;100.00;100957.41;1016941;29;20330;-75
2022/12/16 01:55:22;;;;;;;48.05;32.20;;;;;;;-2.97;100.00;100949.84;1022106;28;20772;-75
2022/12/16 01:55:54;;;;;;;50.42;33.28;;;;;;;-2.96;100.00;100954.94;1027085;28;20298;-75
2022/12/16 01:56:27;;;;;;;49.40;32.97;;;;;;;-2.97;100.00;100950.66;1022654;28;20310;-75
2022/12/16 01:57:02;;;;;;;51.03;34.63;;;;;;;-2.90;100.00;100949.19;1021970;29;20299;-74
2022/12/16 01:57:39;;;;;;;62.50;36.85;;;;;;;-2.88;100.00;100956.91;1016737;29;20312;-75
2022/12/16 01:58:20;;;;;;;53.40;35.85;;;;;;;-3.02;100.00;100954.59;1021417;29;20314;-76
2022/12/16 01:58:53;;;;;;;52.65;32.22;;;;;;;-3.12;100.00;100954.53;1019468;29;20292;-75
2022/12/16 01:59:27;;;;;;;50.47;34.33;;;;;;;-3.07;100.00;100957.56;1025838;28;20082;-75
2022/12/16 02:00:00;;;;;;;50.67;34.03;;;;;;;-3.01;100.00;100962.31;1027300;28;20305;-75
2022/12/16 02:00:32;;;;;;;50.80;33.70;;;;;;;-3.01;100.00;100957.09;1023149;28;20334;-74
2022/12/16 02:01:05;;;;;;;46.10;32.08;;;;;;;-2.92;100.00;100961.53;1019772;29;20307;-75
2022/12/16 02:01:37;;;;;;;49.60;33.38;;;;;;;-2.98;100.00;100956.00;1022656;29;20318;-75
2022/12/16 02:02:09;;;;;;;46.35;33.13;;;;;;;-2.91;100.00;100960.59;1024029;28;20718;-75
2022/12/16 02:02:42;;;;;;;54.20;34.05;;;;;;;-2.99;100.00;100960.41;1024196;28;20346;-75
2022/12/16 02:03:15;;;;;;;50.88;36.53;;;;;;;-3.04;100.00;100959.91;1018310;29;20304;-75
2022/12/16 02:03:47;;;;;;;47.20;32.78;;;;;;;-3.12;100.00;100951.91;1011168;29;20340;-75
2022/12/16 02:04:19;;;;;;;53.75;34.42;;;;;;;-3.12;100.00;100954.53;1007179;29;20293;-75
2022/12/16 02:05:44;;;;;;;52.40;35.97;;;;;;;-3.15;100.00;100959.97;1017866;29;20658;-82
2022/12/16 02:06:16;;;;;;;50.92;34.33;;;;;;;-3.03;100.00;100951.16;1022424;28;20333;-82
2022/12/16 02:06:48;;;;;;;54.55;35.75;;;;;;;-3.05;100.00;100955.66;1019447;29;20318;-81
2022/12/16 02:07:19;;;;;;;54.03;34.65;;;;;;;-3.01;100.00;100956.22;1019153;29;20777;-82
2022/12/16 02:07:55;;;;;;;51.83;35.40;;;;;;;-2.99;100.00;100952.56;1019715;29;20345;-75
2022/12/16 02:08:27;;;;;;;51.03;34.38;;;;;;;-2.99;100.00;100944.75;1017442;29;20407;-76
2022/12/16 02:09:05;;;;;;;48.55;32.58;;;;;;;-2.94;100.00;100953.03;1013006;29;20404;-82
2022/12/16 02:09:36;;;;;;;50.90;34.90;;;;;;;-2.99;100.00;100955.19;1019089;29;21107;-82
2022/12/16 02:10:10;;;;;;;57.28;34.20;;;;;;;-2.90;100.00;100949.19;1020473;29;20363;-82
2022/12/16 02:10:42;;;;;;;54.90;36.58;;;;;;;-2.93;100.00;100954.69;1024174;28;21637;-81
2022/12/16 02:11:41;;;;;;;51.10;36.53;;;;;;;-2.85;100.00;100952.25;1027463;28;20294;-82
2022/12/16 02:12:32;;;;;;;51.80;34.00;;;;;;;-2.88;100.00;100952.50;1022064;28;20302;-75
2022/12/16 02:13:30;;;;;;;49.83;32.15;;;;;;;-2.78;100.00;100951.75;1021678;28;20311;-75
2022/12/16 02:14:08;;;;;;;50.63;33.20;;;;;;;-2.77;100.00;100956.81;1018547;29;20039;-76
2022/12/16 02:14:58;;;;;;;45.85;33.25;;;;;;;-2.75;100.00;100951.47;1019364;29;20315;-75
2022/12/16 02:15:39;;;;;;;57.30;35.97;;;;;;;-3.06;100.00;100953.19;1019218;29;20298;-75
2022/12/16 02:16:24;;;;;;;47.42;32.67;;;;;;;-2.92;100.00;100953.72;1015115;29;20414;-75
2022/12/16 02:17:00;;;;;;;51.63;34.40;;;;;;;-2.84;100.00;100951.28;1015240;29;20047;-82
2022/12/16 02:17:59;;;;;;;51.28;34.22;;;;;;;-2.93;100.00;100952.06;1019367;29;20304;-81
2022/12/16 02:18:37;;;;;;;59.17;34.70;;;;;;;-2.70;100.00;100957.16;1023148;28;20366;-82
2022/12/16 02:19:17;;;;;;;54.92;34.28;;;;;;;-2.80;100.00;100950.09;1023290;28;20310;-82
2022/12/16 02:20:10;;;;;;;51.38;33.33;;;;;;;-2.76;100.00;100960.25;1023678;28;20331;-82
2022/12/16 02:21:02;;;;;;;51.35;33.60;;;;;;;-2.69;100.00;100961.41;1019861;29;20078;-82
2022/12/16 02:22:22;;;;;;;52.28;31.23;;;;;;;-2.67;100.00;100955.13;1018779;29;20335;-82
2022/12/16 02:23:05;;;;;;;50.33;28.60;;;;;;;-2.73;100.00;100954.81;1025486;28;20322;-82
2022/12/16 02:23:55;;;;;;;48.63;30.35;;;;;;;-2.88;100.00;100955.13;1023602;28;20299;-82
2022/12/16 02:24:56;;;;;;;53.38;31.77;;;;;;;-2.95;100.00;100956.59;1023441;28;20856;-81
2022/12/16 02:25:42;;;;;;;49.80;28.92;;;;;;;-2.90;100.00;100954.41;1022905;29;20310;-82
2022/12/16 02:26:34;;;;;;;47.20;26.95;;;;;;;-2.95;100.00;100961.78;1023494;28;20043;-82
2022/12/16 02:27:30;;;;;;;42.42;25.50;;;;;;;-2.90;100.00;100959.63;1022700;28;20733;-82
2022/12/16 02:28:07;;;;;;;45.75;26.38;;;;;;;-2.95;100.00;100956.59;1026751;28;20314;-82
2022/12/16 02:28:50;;;;;;;41.28;25.92;;;;;;;-2.89;100.00;100956.06;1027065;28;20336;-81
2022/12/16 02:29:47;;;;;;;42.22;26.23;;;;;;;-2.95;100.00;100967.00;1024981;28;20351;-82
2022/12/16 02:30:51;;;;;;;46.47;25.42;;;;;;;-3.01;100.00;100962.31;1025229;28;20682;-82
2022/12/16 02:31:34;;;;;;;35.17;23.60;;;;;;;-2.95;100.00;100967.00;1022950;29;20791;-74
2022/12/16 02:32:21;;;;;;;37.13;23.67;;;;;;;-2.95;100.00;100967.00;1017262;29;20062;-82
2022/12/16 02:33:21;;;;;;;40.28;25.58;;;;;;;-2.89;100.00;100963.06;1015012;29;20407;-81
2022/12/16 02:34:07;;;;;;;39.75;25.20;;;;;;;-2.91;100.00;100967.56;1023593;28;20421;-76
2022/12/16 02:34:58;;;;;;;46.35;27.33;;;;;;;-2.99;100.00;100962.19;1021040;28;20339;-75
2022/12/16 02:35:39;;;;;;;40.25;24.33;;;;;;;-2.91;100.00;100963.19;1020259;29;20304;-75
2022/12/16 02:36:13;;;;;;;;;;;;;;;-2.97;100.00;100963.69;1019588;29;20734;-75
2022/12/16 02:37:02;;;;;;;45.38;24.88;;;;;;;-2.89;100.00;100961.28;1024039;29;19922;-77
2022/12/16 02:37:41;;;;;;;44.55;24.88;;;;;;;-2.89;100.00;100966.50;1023896;28;20337;-82